El Paso de Robles, CA

3:19 AM PST en Noviembre 22, 2014 (GMT -0800)
Montebello Oaks | Change Station
CLOSE
Current Station
Estación meteorológica personal
Location: Paso Robles, CA
Altura: 869 ft
Estaciones meteorológicas cercanas

Alt 869 ft 35.64 °N, 120.67 °W | Updated 10 minutes ago

Despejado
Despejado
44.3 ° F
Sensación térmica 44 ° F
N
0.0
Viento Variable Viento desde Norte
Gusts 1.0 mph

Hoy
Alta -- | Baja -- ° F
--% Posibilidad de precipitaciones
Ayer
Alta -- | Baja -- ° F
Precip. -- pul
6:45 AM 4:51 PM
Creciente menguante, 0% visible
Presión 30.18 pul
Visibilidad 8.0 Millas
Nubes Despejado
Vientos helados 44 ° F
Punto de rocío 43 ° F
Humedad 95%
Precipitaciones 0.00 pul
Espesor de la nieve No disponible.
UV 0 de una escala de 12
Polen .90 de una escala de 12
Calidad del aire No disponible.
Flu Activity No disponible.
METAR KPRB 221053Z AUTO 00000KT 8SM CLR 06/04 A3018 RMK AO2 SLP219 T00610044 TSNO

More Conditions Fewer Conditions

Presión 30.18 pul
Visibilidad 8.0 Millas
Nubes Despejado
Vientos helados 44 ° F
Punto de rocío 43 ° F
Humedad 95%
Precipitaciones 0.00 pul
Espesor de la nieve No disponible.
UV 0 de una escala de 12
Polen .90 de una escala de 12
Calidad del aire No disponible.
Flu Activity No disponible.
METAR KPRB 221053Z AUTO 00000KT 8SM CLR 06/04 A3018 RMK AO2 SLP219 T00610044 TSNO

More Conditions Fewer Conditions

10-Day Weather Forecast

Almanac

Astronomía

Nov. 22, 2014 Salida Puesta
Hora real
Crepúsculo civil
Crepúsculo náutico
Crepúsculo astronómico
Luna
Horas de luz
Horas de luz
Tomorrow will be .
, % of the Moon is Illuminated

Extremos de hoy

Máximos del estado Bajos del estado

Community

WunderPhotos

Upload Photos

1,772,805 ¡fotos cargadas!

WunderBlogs® & News

Nearby

Calidad del aire

  Calidad del aire Índice AQ Contaminante
Not available.

Grosos de nieve

Estación Profundido Altura

Actividad de terremotos

Ciudad Distance Mag. Tiempo y dato
Magnitud mínima muestra es 2,5.

Temperaturas de aguas costeras

Lugar Temperatura

Estaciones meteorológicas cercanas